This is the latest recevied weather packets stored in our database for station/object KQ4HDO. If no packets are shown the sender has not sent any weather packets the latest 10 day(s).
| Time | Temp. | Humidity | Pressure | Rain* | Wind** | Luminosity | Snow |
|---|---|---|---|---|---|---|---|
| 1777123203 | 14.44° C | 76% | 1012.4 hPa | 0 mm | - | - | - |
| 1777120803 | 11.67° C | 83% | 1012.2 hPa | 0 mm | - | - | - |
| 1777120503 | 11.67° C | 84% | 1012.1 hPa | 0 mm | - | - | - |
| 1777118703 | 10° C | 90% | 1011.8 hPa | 0 mm | - | - | - |
| 1777116904 | 8.89° C | 91% | 1011.5 hPa | 0 mm | - | - | - |
| 1777116303 | 8.89° C | 92% | 1011.4 hPa | 0 mm | - | - | - |
| 1777114803 | 8.89° C | 92% | 1010.8 hPa | 0 mm | - | - | - |
| 1777113603 | 9.44° C | 92% | 1010.9 hPa | 0 mm | - | - | - |
| 1777111203 | 9.44° C | 92% | 1010.4 hPa | 0 mm | - | - | - |
| 1777110604 | 9.44° C | 92% | 1010.6 hPa | 0 mm | - | - | - |
| 1777102803 | 11.11° C | 88% | 1010.2 hPa | 0 mm | - | - | - |
| 1777100703 | 12.22° C | 86% | 1010.4 hPa | 0 mm | - | - | - |
| 1777100237 | 12.22° C | 85% | 1010.4 hPa | 0 mm | - | - | - |
| 1777099503 | 12.78° C | 83% | 1010.5 hPa | 0 mm | - | - | - |
| 1777098738 | 13.33° C | 80% | 1010.6 hPa | 0 mm | - | - | - |
| 1777094237 | 15.56° C | 75% | 1010 hPa | 0 mm | - | - | - |
| 1777087038 | 17.78° C | 73% | 1010 hPa | 0 mm | - | - | - |
| 1777082403 | 18.33° C | 73% | 1009.1 hPa | 0 mm | - | - | - |
| 1777079403 | 20° C | 70% | 1008.5 hPa | 0 mm | - | - | - |
| 1777078338 | 20.56° C | 68% | 1008.3 hPa | 0 mm | - | - | - |
| 1777076403 | 21.67° C | 63% | 1008.2 hPa | 0 mm | - | - | - |
| 1777070703 | 23.89° C | 57% | 1007.4 hPa | 0 mm | - | - | - |
| 1777069203 | 23.33° C | 58% | 1007.2 hPa | 0 mm | - | - | - |
| 1777068303 | 23.89° C | 59% | 1007.2 hPa | 0 mm | - | - | - |
| 1777065903 | 22.78° C | 59% | 1007 hPa | 0 mm | - | - | - |
* Rain latest hour (hover to see other rain measurements)
** Current wind speed in m/s (hover to see current wind gust speed)